createdAt,value
2022-07-30T00:01:08.284Z,15.40
2022-07-30T00:03:51.668Z,15.40
2022-07-30T00:06:29.438Z,15.40
2022-07-30T00:09:11.286Z,15.30
2022-07-30T00:12:06.060Z,15.30
2022-07-30T00:14:52.644Z,15.30
2022-07-30T00:17:36.022Z,15.30
2022-07-30T00:20:22.412Z,15.30
2022-07-30T00:23:14.133Z,15.40
2022-07-30T00:26:12.857Z,15.60
2022-07-30T00:28:49.933Z,15.80
2022-07-30T00:31:30.078Z,15.90
2022-07-30T00:34:06.758Z,15.90
2022-07-30T00:36:51.763Z,16.00
2022-07-30T00:39:46.423Z,16.10
2022-07-30T00:43:08.040Z,16.30
2022-07-30T00:45:49.278Z,16.30
2022-07-30T00:51:25.870Z,16.40
2022-07-30T00:54:10.992Z,16.30
2022-07-30T00:56:48.211Z,16.40
2022-07-30T00:59:31.581Z,16.50
2022-07-30T01:02:14.970Z,16.50
2022-07-30T01:04:55.198Z,16.50
2022-07-30T01:07:38.775Z,16.40
2022-07-30T01:10:20.632Z,16.50
2022-07-30T01:13:15.694Z,16.50
2022-07-30T01:16:17.021Z,16.50
2022-07-30T01:19:13.175Z,16.30
2022-07-30T01:22:35.617Z,16.40
2022-07-30T01:25:26.498Z,16.40
2022-07-30T01:29:05.273Z,16.40
2022-07-30T01:31:47.828Z,16.30
2022-07-30T01:34:26.485Z,16.10
2022-07-30T01:37:07.011Z,16.10
2022-07-30T01:40:07.709Z,16.10
2022-07-30T01:42:48.527Z,16.30
2022-07-30T01:45:32.308Z,16.40
2022-07-30T01:48:34.574Z,16.20
2022-07-30T01:54:25.126Z,16.50
2022-07-30T01:57:50.440Z,16.40
2022-07-30T02:01:02.429Z,16.40
2022-07-30T02:03:42.781Z,16.30
2022-07-30T02:10:04.694Z,16.40
2022-07-30T02:13:17.249Z,16.50
2022-07-30T02:16:44.624Z,16.50
2022-07-30T02:20:09.729Z,16.70
2022-07-30T02:23:29.621Z,16.60
2022-07-30T02:26:10.633Z,16.70
2022-07-30T02:29:11.222Z,16.80
2022-07-30T02:31:56.736Z,17.00
2022-07-30T02:35:01.708Z,17.00
2022-07-30T02:38:03.996Z,17.10
2022-07-30T02:40:41.825Z,17.20
2022-07-30T02:46:40.916Z,17.50
2022-07-30T02:50:14.245Z,17.60
2022-07-30T02:52:52.876Z,17.50
2022-07-30T02:55:55.781Z,17.60
2022-07-30T02:58:37.446Z,17.70
2022-07-30T03:01:51.290Z,17.90
2022-07-30T03:04:55.014Z,17.90
2022-07-30T03:07:54.097Z,18.00
2022-07-30T03:10:44.266Z,18.20
2022-07-30T03:14:08.562Z,18.40
2022-07-30T03:16:48.874Z,18.50
2022-07-30T03:19:48.234Z,18.60
2022-07-30T03:23:00.366Z,18.70
2022-07-30T03:25:54.983Z,18.60
2022-07-30T03:28:37.029Z,18.60
2022-07-30T03:31:22.651Z,18.60
2022-07-30T03:34:02.271Z,18.60
2022-07-30T03:36:55.753Z,18.70
2022-07-30T03:39:55.618Z,18.70
2022-07-30T03:42:36.323Z,19.00
2022-07-30T03:45:23.464Z,19.00
2022-07-30T03:48:17.426Z,19.10
2022-07-30T03:50:58.247Z,19.00
2022-07-30T03:54:02.969Z,18.80
2022-07-30T03:56:49.626Z,18.90
2022-07-30T04:00:03.982Z,19.10
2022-07-30T04:03:08.262Z,19.20
2022-07-30T04:06:02.517Z,19.40
2022-07-30T04:08:47.368Z,19.40
2022-07-30T04:11:41.623Z,19.40
2022-07-30T04:14:41.008Z,19.20
2022-07-30T04:17:36.319Z,19.00
2022-07-30T04:20:44.542Z,18.90
2022-07-30T04:23:27.029Z,18.80
2022-07-30T04:26:08.309Z,18.80
2022-07-30T04:29:01.037Z,18.90
2022-07-30T04:31:40.482Z,19.00
2022-07-30T04:35:07.533Z,19.00
2022-07-30T04:38:16.130Z,18.90
2022-07-30T04:41:03.427Z,18.70
2022-07-30T04:44:01.328Z,18.70
2022-07-30T04:46:44.903Z,18.60
2022-07-30T04:49:29.281Z,18.50
2022-07-30T04:52:26.926Z,18.30
2022-07-30T04:55:46.171Z,18.00
2022-07-30T04:58:32.162Z,17.80
2022-07-30T05:04:10.565Z,17.50
2022-07-30T05:06:52.320Z,17.40
2022-07-30T05:09:44.198Z,17.30
2022-07-30T05:12:25.701Z,17.30
2022-07-30T05:15:18.797Z,17.20
2022-07-30T05:19:00.626Z,17.10
2022-07-30T05:21:38.463Z,17.10
2022-07-30T05:24:21.047Z,17.00
2022-07-30T05:27:25.598Z,16.90
2022-07-30T05:30:11.753Z,16.90
2022-07-30T05:33:15.552Z,16.90
2022-07-30T05:36:18.278Z,16.80
2022-07-30T05:39:00.329Z,16.80
2022-07-30T05:42:16.929Z,16.90
2022-07-30T05:45:18.077Z,16.80
2022-07-30T05:50:36.209Z,17.00
2022-07-30T05:53:22.785Z,16.70
2022-07-30T05:56:31.317Z,16.70
2022-07-30T06:05:19.895Z,16.60
2022-07-30T06:08:01.801Z,16.60
2022-07-30T06:10:43.630Z,16.70
2022-07-30T06:13:24.040Z,16.60
2022-07-30T06:16:07.455Z,16.60
2022-07-30T06:18:57.389Z,16.60
2022-07-30T06:22:33.965Z,16.50
2022-07-30T06:43:14.742Z,16.40
2022-07-30T06:46:32.246Z,16.40
2022-07-30T06:52:00.137Z,16.20
2022-07-30T06:54:41.948Z,16.30
2022-07-30T06:57:58.583Z,16.20
2022-07-30T07:01:34.269Z,16.20
2022-07-30T07:07:41.896Z,16.10
2022-07-30T07:28:51.414Z,15.90
2022-07-30T08:24:11.195Z,15.40
2022-07-30T08:26:53.312Z,15.40
2022-07-30T08:29:46.572Z,15.30
2022-07-30T08:32:54.370Z,15.20
2022-07-30T08:35:31.267Z,15.10
2022-07-30T08:38:39.194Z,15.00
2022-07-30T08:41:48.751Z,15.00
2022-07-30T08:44:50.920Z,15.10
2022-07-30T08:48:07.742Z,15.00
2022-07-30T08:51:04.015Z,14.90
2022-07-30T08:54:06.262Z,14.90
2022-07-30T08:56:59.333Z,14.80
2022-07-30T09:00:06.955Z,14.80
2022-07-30T09:02:46.034Z,14.70
2022-07-30T09:05:26.766Z,14.70
2022-07-30T09:08:08.809Z,14.70
2022-07-30T09:11:06.607Z,14.70
2022-07-30T09:13:46.698Z,14.70
2022-07-30T09:16:30.337Z,14.60
2022-07-30T09:19:28.533Z,14.60
2022-07-30T09:22:32.120Z,14.60
2022-07-30T09:25:49.496Z,14.60
2022-07-30T09:28:44.034Z,14.50
2022-07-30T09:35:43.449Z,14.50
2022-07-30T09:38:20.303Z,14.50
2022-07-30T09:41:49.525Z,14.40
2022-07-30T09:44:54.302Z,14.40
2022-07-30T09:48:15.141Z,14.30
2022-07-30T09:50:57.854Z,14.30
2022-07-30T09:53:45.503Z,14.20
2022-07-30T09:56:32.517Z,14.20
2022-07-30T09:59:37.610Z,14.20
2022-07-30T10:02:24.276Z,14.20
2022-07-30T10:05:27.108Z,14.10
2022-07-30T10:08:18.968Z,14.10
2022-07-30T10:11:52.877Z,14.10
2022-07-30T10:15:14.414Z,14.10
2022-07-30T10:17:57.876Z,14.00
2022-07-30T10:21:05.338Z,14.00
2022-07-30T10:24:41.727Z,14.00
2022-07-30T10:28:46.054Z,13.90
2022-07-30T10:31:49.009Z,13.90
2022-07-30T10:34:27.675Z,13.90
2022-07-30T10:37:36.192Z,13.90
2022-07-30T10:41:22.213Z,13.90
2022-07-30T10:44:50.038Z,13.90
2022-07-30T10:47:50.259Z,14.00
2022-07-30T10:50:34.955Z,13.90
2022-07-30T10:53:28.467Z,13.90
2022-07-30T10:56:32.217Z,13.80
2022-07-30T10:59:11.801Z,13.80
2022-07-30T11:02:27.335Z,13.70
2022-07-30T11:06:24.197Z,13.70
2022-07-30T11:09:49.795Z,13.70
2022-07-30T11:13:19.999Z,13.70
2022-07-30T11:16:27.541Z,13.70
2022-07-30T11:19:55.315Z,13.70
2022-07-30T11:23:15.573Z,13.70
2022-07-30T11:25:59.436Z,13.60
2022-07-30T11:28:54.018Z,13.60
2022-07-30T11:32:33.765Z,13.70
2022-07-30T11:35:45.194Z,13.60
2022-07-30T11:39:38.640Z,13.60
2022-07-30T11:42:56.868Z,13.60
2022-07-30T11:45:46.576Z,13.50
2022-07-30T11:48:24.871Z,13.50
2022-07-30T11:51:08.042Z,13.50
2022-07-30T11:53:44.352Z,13.50
2022-07-30T11:56:41.986Z,13.40
2022-07-30T11:59:33.122Z,13.40
2022-07-30T12:02:17.263Z,13.40
2022-07-30T12:05:19.505Z,13.40
2022-07-30T12:08:04.423Z,13.40
2022-07-30T12:11:13.760Z,13.40
2022-07-30T12:14:20.613Z,13.40
2022-07-30T12:17:15.305Z,13.40
2022-07-30T12:20:03.789Z,13.30
2022-07-30T12:22:56.906Z,13.30
2022-07-30T12:25:33.124Z,13.30
2022-07-30T12:28:39.805Z,13.30
2022-07-30T12:31:49.017Z,13.30
2022-07-30T12:35:05.949Z,13.30
2022-07-30T12:37:47.753Z,13.30
2022-07-30T12:40:30.144Z,13.30
2022-07-30T12:43:06.453Z,13.30
2022-07-30T12:46:42.183Z,13.30
2022-07-30T12:49:25.621Z,13.30
2022-07-30T12:53:08.557Z,13.20
2022-07-30T12:55:49.882Z,13.20
2022-07-30T12:58:31.085Z,13.20
2022-07-30T13:01:08.349Z,13.20
2022-07-30T13:04:06.115Z,13.10
2022-07-30T13:06:54.723Z,13.10
2022-07-30T13:12:27.367Z,13.10
2022-07-30T13:15:11.670Z,13.10
2022-07-30T13:18:00.990Z,13.10
2022-07-30T13:20:49.732Z,13.10
2022-07-30T13:23:30.024Z,13.10
2022-07-30T13:26:32.716Z,13.10
2022-07-30T13:29:20.951Z,13.10
2022-07-30T13:32:01.789Z,13.10
2022-07-30T13:35:01.577Z,13.10
2022-07-30T13:40:49.057Z,13.00
2022-07-30T13:43:29.731Z,13.00
2022-07-30T13:49:55.573Z,13.00
2022-07-30T13:52:45.571Z,12.90
2022-07-30T13:55:23.565Z,12.90
2022-07-30T13:58:23.886Z,13.00
2022-07-30T14:01:25.723Z,13.00
2022-07-30T14:04:04.317Z,13.00
2022-07-30T14:06:49.366Z,13.00
2022-07-30T14:09:56.223Z,12.90
2022-07-30T14:15:31.992Z,12.90
2022-07-30T14:18:16.870Z,12.90
2022-07-30T14:20:57.794Z,12.90
2022-07-30T14:23:40.962Z,12.90
2022-07-30T14:26:19.660Z,12.90
2022-07-30T14:28:59.552Z,12.80
2022-07-30T14:31:56.660Z,12.80
2022-07-30T14:34:41.591Z,12.80
2022-07-30T14:37:46.320Z,12.70
2022-07-30T14:41:01.140Z,12.70
2022-07-30T14:43:38.722Z,12.70
2022-07-30T14:46:33.271Z,12.70
2022-07-30T14:49:15.588Z,12.60
2022-07-30T14:52:19.238Z,12.60
2022-07-30T14:55:29.930Z,12.70
2022-07-30T14:58:06.161Z,12.60
2022-07-30T15:00:49.236Z,12.60
2022-07-30T15:03:43.280Z,12.60
2022-07-30T15:06:20.297Z,12.60
2022-07-30T15:09:12.596Z,12.60
2022-07-30T15:12:23.444Z,12.60
2022-07-30T15:18:29.271Z,12.60
2022-07-30T15:21:11.452Z,12.60
2022-07-30T15:24:05.899Z,12.70
2022-07-30T15:26:57.179Z,12.60
2022-07-30T15:29:39.875Z,12.60
2022-07-30T15:32:24.632Z,12.60
2022-07-30T15:35:08.403Z,12.50
2022-07-30T15:38:00.203Z,12.40
2022-07-30T15:40:42.521Z,12.40
2022-07-30T15:43:35.459Z,12.40
2022-07-30T15:46:15.728Z,12.30
2022-07-30T15:48:58.277Z,12.30
2022-07-30T15:51:41.891Z,12.20
2022-07-30T15:54:22.624Z,12.20
2022-07-30T15:57:46.346Z,12.20
2022-07-30T16:00:23.322Z,12.10
2022-07-30T16:03:02.418Z,12.10
2022-07-30T16:05:51.710Z,12.10
2022-07-30T16:08:48.015Z,12.10
2022-07-30T16:11:38.858Z,12.00
2022-07-30T16:14:20.596Z,12.10
2022-07-30T16:17:24.310Z,12.10
2022-07-30T16:20:16.063Z,12.10
2022-07-30T16:22:55.597Z,12.20
2022-07-30T16:25:32.761Z,12.20
2022-07-30T16:28:22.532Z,12.30
2022-07-30T16:31:18.609Z,12.30
2022-07-30T16:34:16.513Z,12.30
2022-07-30T16:37:05.621Z,12.40
2022-07-30T16:40:05.546Z,12.40
2022-07-30T16:42:49.129Z,12.40
2022-07-30T16:45:29.406Z,12.40
2022-07-30T16:48:20.861Z,12.40
2022-07-30T16:51:02.486Z,12.40
2022-07-30T16:53:50.359Z,12.40
2022-07-30T16:56:49.779Z,12.40
2022-07-30T16:59:28.099Z,12.40
2022-07-30T17:02:12.155Z,12.30
2022-07-30T17:05:09.605Z,12.30
2022-07-30T17:08:05.248Z,12.40
2022-07-30T17:10:43.988Z,12.30
2022-07-30T17:13:23.476Z,12.30
2022-07-30T17:16:34.037Z,12.30
2022-07-30T17:19:31.078Z,12.30
2022-07-30T17:22:19.016Z,12.30
2022-07-30T17:25:07.905Z,12.30
2022-07-30T17:27:50.615Z,12.20
2022-07-30T17:30:36.060Z,12.20
2022-07-30T17:33:21.083Z,12.20
2022-07-30T17:36:05.596Z,12.20
2022-07-30T17:38:54.276Z,12.20
2022-07-30T17:41:30.638Z,12.30
2022-07-30T17:44:19.584Z,12.30
2022-07-30T17:47:00.566Z,12.30
2022-07-30T17:49:41.583Z,12.30
2022-07-30T17:52:27.797Z,12.30
2022-07-30T17:55:21.344Z,12.30
2022-07-30T17:58:04.647Z,12.20
2022-07-30T18:00:43.396Z,12.30
2022-07-30T18:03:46.142Z,12.30
2022-07-30T18:06:22.043Z,12.30
2022-07-30T18:09:10.219Z,12.20
2022-07-30T18:11:53.614Z,12.20
2022-07-30T18:14:33.450Z,12.30
2022-07-30T18:17:14.400Z,12.20
2022-07-30T18:20:17.294Z,12.20
2022-07-30T18:22:56.079Z,12.20
2022-07-30T18:26:30.115Z,12.20
2022-07-30T18:29:02.712Z,12.20
2022-07-30T18:31:41.554Z,12.20
2022-07-30T18:34:24.280Z,12.10
2022-07-30T18:37:13.874Z,12.10
2022-07-30T18:39:54.770Z,12.00
2022-07-30T18:42:36.873Z,12.00
2022-07-30T18:45:35.236Z,12.00
2022-07-30T18:48:37.623Z,12.00
2022-07-30T18:51:16.890Z,11.90
2022-07-30T18:54:23.739Z,11.90
2022-07-30T18:57:03.920Z,11.90
2022-07-30T18:59:59.449Z,11.90
2022-07-30T19:03:02.024Z,11.90
2022-07-30T19:05:39.765Z,11.90
2022-07-30T19:08:22.528Z,11.90
2022-07-30T19:11:10.651Z,11.90
2022-07-30T19:13:47.556Z,11.80
2022-07-30T19:16:24.992Z,11.80
2022-07-30T19:19:09.019Z,11.80
2022-07-30T19:22:02.384Z,11.70
2022-07-30T19:24:40.276Z,11.70
2022-07-30T19:27:24.417Z,11.60
2022-07-30T19:30:00.966Z,11.70
2022-07-30T19:32:42.894Z,11.60
2022-07-30T19:35:32.999Z,11.60
2022-07-30T19:38:42.060Z,11.60
2022-07-30T19:41:18.656Z,11.60
2022-07-30T19:43:58.430Z,11.60
2022-07-30T19:46:36.338Z,11.60
2022-07-30T19:49:23.884Z,11.60
2022-07-30T19:52:51.263Z,11.50
2022-07-30T19:55:49.313Z,11.50
2022-07-30T19:58:26.623Z,11.50
2022-07-30T20:01:08.818Z,11.50
2022-07-30T20:03:45.849Z,11.50
2022-07-30T20:06:52.741Z,11.40
2022-07-30T20:09:48.409Z,11.50
2022-07-30T20:13:09.940Z,11.40
2022-07-30T20:16:17.308Z,11.50
2022-07-30T20:19:19.494Z,11.50
2022-07-30T20:22:18.732Z,11.50
2022-07-30T20:25:09.329Z,11.50
2022-07-30T20:28:01.486Z,11.60
2022-07-30T20:31:12.878Z,11.50
2022-07-30T20:34:02.796Z,11.40
2022-07-30T20:36:58.277Z,11.40
2022-07-30T20:39:59.082Z,11.30
2022-07-30T20:42:57.246Z,11.30
2022-07-30T20:45:49.676Z,11.30
2022-07-30T20:48:49.018Z,11.20
2022-07-30T20:51:38.798Z,11.30
2022-07-30T20:54:24.256Z,11.30
2022-07-30T21:00:23.552Z,11.40
2022-07-30T21:03:21.940Z,11.50
2022-07-30T21:06:05.947Z,12.20
2022-07-30T21:08:49.166Z,12.50
2022-07-30T21:11:50.858Z,12.30
2022-07-30T21:14:39.568Z,12.10
2022-07-30T21:17:50.726Z,11.90
2022-07-30T21:20:32.010Z,11.80
2022-07-30T21:23:31.678Z,11.70
2022-07-30T21:26:10.569Z,11.60
2022-07-30T21:28:50.282Z,11.60
2022-07-30T21:32:03.128Z,11.60
2022-07-30T21:35:11.673Z,11.60
2022-07-30T21:37:51.574Z,11.60
2022-07-30T21:40:30.391Z,11.70
2022-07-30T21:43:08.127Z,11.70
2022-07-30T21:45:45.058Z,11.70
2022-07-30T21:49:09.486Z,11.70
2022-07-30T21:52:06.890Z,11.80
2022-07-30T21:55:26.409Z,11.80
2022-07-30T21:58:26.337Z,11.80
2022-07-30T22:04:40.311Z,12.00
2022-07-30T22:07:23.826Z,12.10
2022-07-30T22:10:14.022Z,12.20
2022-07-30T22:17:22.870Z,12.30
2022-07-30T22:20:30.077Z,12.30
2022-07-30T22:23:16.841Z,12.40
2022-07-30T22:26:04.381Z,12.40
2022-07-30T22:28:42.998Z,12.40
2022-07-30T22:31:54.228Z,12.50
2022-07-30T22:34:40.269Z,12.50
2022-07-30T22:37:21.618Z,12.50
2022-07-30T22:43:40.858Z,12.50
2022-07-30T22:46:38.728Z,12.50
2022-07-30T22:49:49.863Z,12.60
2022-07-30T22:52:58.737Z,12.60
2022-07-30T22:58:36.568Z,12.70
2022-07-30T23:01:23.785Z,12.70
2022-07-30T23:04:04.343Z,12.80
2022-07-30T23:06:57.010Z,12.80
2022-07-30T23:10:28.277Z,12.80
2022-07-30T23:12:28.468Z,12.30
2022-07-30T23:12:32.937Z,11.30
2022-07-30T23:13:17.226Z,12.80
2022-07-30T23:15:58.078Z,12.90
2022-07-30T23:18:39.127Z,12.90
2022-07-30T23:21:16.137Z,13.00
2022-07-30T23:23:56.883Z,13.00
2022-07-30T23:26:35.383Z,13.10
2022-07-30T23:32:05.685Z,13.10
2022-07-30T23:34:57.546Z,13.20
2022-07-30T23:37:48.476Z,13.20
2022-07-30T23:40:51.728Z,13.30
2022-07-30T23:43:42.066Z,13.30
2022-07-30T23:46:23.851Z,13.40
2022-07-30T23:49:01.180Z,13.40
2022-07-30T23:51:41.203Z,13.50
2022-07-30T23:54:20.972Z,13.50
2022-07-30T23:57:06.809Z,13.60
2022-07-30T23:59:55.202Z,13.70
